Terminal Aerodrome Forecast
Issued by NWS Flagstaff, AZ

Home | Current Version | Previous Version | Text Only | Print | Product List | Glossary On
Versions: 1 2 3 4 5 6 7 8 9 10 11 12 13 14 15 16
000
FTUS45 KFGZ 141100
TAFINW
TAF
KINW 141122Z 1412/1512 20007KT P6SM FEW080 BKN110
     FM141700 VRB06KT P6SM SCT100 BKN120 PROB30 1421/1503 VRB15G30KT
      5SM TSRA BKN080CB
     FM150300 VRB06KT P6SM FEW080 BKN110=

USA.gov is the U.S. government's official web portal to all federal, state and local government web resources and services.